Forest Dale, Vermont
Current Conditions -  °F | °C
As of 10:55 AM on Wednesday 28 Jan 2015 (Local Time) from K6B0 Reporting Station
Clear Clear  
Wind Chill: -4°   Ceiling: Unl
Heat Index: 12°   Visibility: 7mi
Dew Point: -5°   Wind: 14mph
Humidity: 46%   Direction: 360°N
Pressure: 30.12"   Gusts: 20mph
Location:  43.83°N, 73.05°W
Report Text: K6B0 281555Z AUTO 36012G17KT 7SM CLR M11/M21 A3012 RMK AO2 T11121208
Loading
Personal Weather Stations






























Interactive Weather Map New forecast layout! Learn more

10-Day Weather Forecast

Advertisements
Track Severe Weather on mobile